Time;durP1;ratioP1;P1;durP2;ratioP2;P2;SDS_P1;SDS_P2;PMS_P1;PMS_P2;Temp;Humidity;BMP_temperature;BMP_pressure;BME280_temperature;BME280_humidity;BME280_pressure;Samples;Min_cycle;Max_cycle;Signal;HPM_P1;HPM_P2
2021/08/13 00:01:39;;;;;;;23.55;13.55;;;;;;;16.96;82.68;102043.63;5031318;28;20026;-64
2021/08/13 00:04:04;;;;;;;21.70;13.68;;;;;;;16.95;81.96;102048.09;5030703;28;20144;-64
2021/08/13 00:06:30;;;;;;;23.05;14.65;;;;;;;16.92;82.85;102050.06;5033212;28;20046;-64
2021/08/13 00:08:56;;;;;;;21.85;13.48;;;;;;;16.92;82.33;102055.41;5031319;28;20514;-64
2021/08/13 00:11:21;;;;;;;23.70;14.38;;;;;;;16.89;82.67;102051.06;5033008;28;20026;-64
2021/08/13 00:13:46;;;;;;;21.63;13.93;;;;;;;16.86;82.74;102049.41;5015301;28;20044;-64
2021/08/13 00:16:11;;;;;;;22.38;13.32;;;;;;;16.83;82.70;102049.59;5031013;28;20022;-64
2021/08/13 00:18:37;;;;;;;22.25;13.68;;;;;;;16.81;82.85;102051.47;5030992;28;20021;-65
2021/08/13 00:21:02;;;;;;;23.75;13.80;;;;;;;16.82;82.53;102060.38;5032811;28;20476;-64
2021/08/13 00:23:28;;;;;;;22.75;14.45;;;;;;;16.81;82.41;102067.50;5032931;28;20144;-65
2021/08/13 00:25:53;;;;;;;24.83;13.50;;;;;;;16.77;82.43;102068.63;5031145;28;20037;-64
2021/08/13 00:28:19;;;;;;;23.92;14.65;;;;;;;16.73;83.00;102075.09;5031127;28;20033;-65
2021/08/13 00:30:44;;;;;;;23.25;14.23;;;;;;;16.70;82.73;102077.91;5032660;28;20036;-64
2021/08/13 00:33:09;;;;;;;24.50;13.80;;;;;;;16.66;82.90;102076.31;5032549;28;20484;-65
2021/08/13 00:35:35;;;;;;;20.60;13.52;;;;;;;16.67;83.01;102080.75;5032037;28;20112;-65
2021/08/13 00:38:00;;;;;;;23.50;14.43;;;;;;;16.65;83.65;102086.19;5032803;28;20060;-65
2021/08/13 00:40:26;;;;;;;24.40;14.50;;;;;;;16.61;84.06;102076.59;5031276;28;20037;-65
2021/08/13 00:42:52;;;;;;;22.75;13.98;;;;;;;16.61;83.76;102084.59;5015144;28;20117;-65
2021/08/13 00:45:17;;;;;;;21.85;13.27;;;;;;;16.60;83.60;102080.19;5013839;28;20149;-65
2021/08/13 00:47:43;;;;;;;21.88;12.88;;;;;;;16.59;83.77;102070.44;5012582;28;20164;-65
2021/08/13 00:50:09;;;;;;;22.38;12.00;;;;;;;16.60;83.54;102073.97;5013581;28;20113;-65
2021/08/13 00:52:34;;;;;;;18.23;10.75;;;;;;;16.61;82.96;102062.31;5012794;28;20030;-65
2021/08/13 00:54:59;;;;;;;18.27;10.25;;;;;;;16.63;83.02;102063.97;5013016;28;20022;-65
2021/08/13 00:57:25;;;;;;;17.45;9.77;;;;;;;16.67;82.58;102070.03;5013647;28;20030;-65
2021/08/13 00:59:50;;;;;;;15.45;9.57;;;;;;;16.70;82.11;102083.25;5012647;28;20506;-64
2021/08/13 01:02:16;;;;;;;17.42;10.68;;;;;;;16.73;81.66;102083.09;5026063;28;20025;-65
2021/08/13 01:04:41;;;;;;;15.25;10.25;;;;;;;16.75;81.34;102085.69;5019011;28;20117;-64
2021/08/13 01:07:07;;;;;;;18.98;10.63;;;;;;;16.74;81.43;102082.16;5013177;28;20076;-64
2021/08/13 01:09:35;;;;;;;20.08;11.20;;;;;;;16.77;81.40;102082.00;5012517;28;20042;-65
2021/08/13 01:12:00;;;;;;;18.63;10.43;;;;;;;16.77;81.67;102075.78;4995715;28;20041;-64
2021/08/13 01:14:47;;;;;;;19.07;11.77;;;;;;;16.75;81.69;102089.22;5012511;28;20026;-64
2021/08/13 01:17:15;;;;;;;16.55;10.70;;;;;;;16.75;82.09;102088.38;5016051;28;20293;-65
2021/08/13 01:20:01;;;;;;;14.80;9.57;;;;;;;16.72;81.85;102078.69;5016615;28;20531;-64
2021/08/13 01:22:48;;;;;;;17.73;9.23;;;;;;;16.71;81.73;102087.66;5017300;28;20038;-65
2021/08/13 01:25:17;;;;;;;15.68;9.23;;;;;;;16.68;81.88;102082.47;5016432;28;20030;-64
2021/08/13 01:27:48;;;;;;;17.98;9.27;;;;;;;16.68;82.15;102091.34;5018236;28;20022;-65
2021/08/13 01:30:17;;;;;;;12.70;7.90;;;;;;;16.67;81.77;102092.28;5036185;28;20037;-64
2021/08/13 01:32:50;;;;;;;14.95;7.55;;;;;;;16.68;81.69;102102.06;5016605;28;20024;-64
2021/08/13 01:35:19;;;;;;;11.63;7.90;;;;;;;16.65;82.16;102093.31;5035927;28;20471;-64
2021/08/13 01:37:52;;;;;;;10.50;7.03;;;;;;;16.66;81.33;102089.69;5033812;28;20030;-65
2021/08/13 01:40:18;;;;;;;11.55;7.38;;;;;;;16.62;81.59;102083.63;5027220;28;20044;-64
2021/08/13 01:42:46;;;;;;;11.75;6.85;;;;;;;16.58;81.58;102084.75;5016638;28;20026;-64
2021/08/13 01:45:22;;;;;;;13.63;7.80;;;;;;;16.52;82.04;102085.94;5021132;28;20028;-65
2021/08/13 01:47:50;;;;;;;10.38;6.82;;;;;;;16.49;81.42;102086.06;5034266;28;20025;-64
2021/08/13 01:50:16;;;;;;;11.50;6.78;;;;;;;16.45;81.21;102078.28;5035514;28;20112;-64
2021/08/13 01:52:42;;;;;;;13.23;7.40;;;;;;;16.41;82.23;102085.59;5035331;28;20427;-64
2021/08/13 01:55:09;;;;;;;10.77;7.03;;;;;;;16.37;82.73;102078.69;5034093;28;20467;-64
2021/08/13 01:57:34;;;;;;;13.55;7.60;;;;;;;16.36;82.38;102084.97;5035307;28;20113;-64
2021/08/13 02:00:00;;;;;;;10.80;7.25;;;;;;;16.35;82.77;102093.91;5033906;28;20068;-64
2021/08/13 02:02:26;;;;;;;15.30;8.20;;;;;;;16.34;82.36;102097.53;5035487;28;20723;-64
2021/08/13 02:04:53;;;;;;;11.00;7.22;;;;;;;16.30;82.45;102096.81;5033700;28;20088;-64
2021/08/13 02:07:20;;;;;;;10.98;7.13;;;;;;;16.31;83.24;102089.66;5034308;28;20053;-64
2021/08/13 02:09:45;;;;;;;11.98;6.95;;;;;;;16.30;83.14;102093.28;5033909;28;20025;-64
2021/08/13 02:12:11;;;;;;;10.30;7.00;;;;;;;16.29;82.70;102087.06;5035176;28;20029;-64
2021/08/13 02:14:38;;;;;;;10.68;6.68;;;;;;;16.27;83.24;102082.75;5034419;28;20079;-64
2021/08/13 02:17:10;;;;;;;10.80;6.30;;;;;;;16.24;82.86;102088.22;5034911;28;20044;-64
2021/08/13 02:19:41;;;;;;;9.60;6.00;;;;;;;16.24;83.05;102080.19;5034617;28;20057;-65
2021/08/13 02:22:06;;;;;;;13.37;6.33;;;;;;;16.22;83.19;102086.47;5034547;28;20132;-64
2021/08/13 02:24:32;;;;;;;11.77;6.50;;;;;;;16.19;83.73;102083.13;5034963;28;20030;-65
2021/08/13 02:26:59;;;;;;;10.95;6.13;;;;;;;16.19;83.26;102077.78;5020604;28;20030;-65
2021/08/13 02:29:25;;;;;;;9.88;6.50;;;;;;;16.18;83.48;102081.38;5015148;28;20403;-65
2021/08/13 02:31:50;;;;;;;10.70;6.30;;;;;;;16.16;84.03;102086.81;5017493;28;20030;-65
2021/08/13 02:34:16;;;;;;;9.32;6.00;;;;;;;16.18;83.91;102081.38;5015711;28;20038;-65
2021/08/13 02:37:03;;;;;;;11.15;6.32;;;;;;;16.17;83.77;102090.34;5015939;28;20053;-65
2021/08/13 02:39:32;;;;;;;9.23;6.03;;;;;;;16.16;84.06;102086.81;5015963;28;20030;-64
2021/08/13 02:42:02;;;;;;;8.18;5.60;;;;;;;16.17;84.42;102091.19;5014980;28;20034;-64
2021/08/13 02:44:30;;;;;;;8.48;5.60;;;;;;;16.19;84.19;102091.13;5014974;28;20471;-64
2021/08/13 02:47:01;;;;;;;9.43;5.88;;;;;;;16.15;84.56;102089.53;5016098;28;20079;-64
2021/08/13 02:49:27;;;;;;;9.13;5.53;;;;;;;16.15;84.24;102089.53;5016145;28;20034;-64
2021/08/13 02:52:00;;;;;;;9.20;5.30;;;;;;;16.13;84.72;102086.09;5014809;28;20025;-65
2021/08/13 02:54:28;;;;;;;11.18;5.88;;;;;;;16.11;84.84;102083.47;4996899;28;20368;-64
2021/08/13 02:56:57;;;;;;;9.80;5.70;;;;;;;16.09;85.13;102090.72;5025101;28;20118;-64
2021/08/13 02:59:27;;;;;;;9.43;5.68;;;;;;;16.09;84.95;102089.81;5031143;28;20021;-65
2021/08/13 03:01:55;;;;;;;10.02;6.10;;;;;;;16.09;85.20;102088.03;5034572;28;20026;-65
2021/08/13 03:04:21;;;;;;;8.75;5.80;;;;;;;16.10;85.14;102087.09;5016585;28;20021;-64
2021/08/13 03:06:48;;;;;;;9.10;5.47;;;;;;;16.09;85.53;102089.81;5034212;28;20025;-64
2021/08/13 03:09:15;;;;;;;9.30;5.82;;;;;;;16.10;85.49;102097.78;5032049;28;20037;-65
2021/08/13 03:11:43;;;;;;;8.98;5.93;;;;;;;16.10;85.54;102087.09;5032363;28;20090;-65
2021/08/13 03:14:10;;;;;;;11.40;6.85;;;;;;;16.14;85.48;102094.03;5034104;28;20475;-65
2021/08/13 03:16:35;;;;;;;12.25;6.82;;;;;;;16.17;84.89;102099.22;5033902;28;20041;-64
2021/08/13 03:19:02;;;;;;;9.90;7.28;;;;;;;16.16;84.67;102097.50;5032685;28;20379;-65
2021/08/13 03:21:28;;;;;;;9.77;6.72;;;;;;;16.13;85.21;102089.63;5032355;28;20040;-65
2021/08/13 03:23:55;;;;;;;10.77;6.35;;;;;;;16.14;84.95;102091.34;5015899;28;20435;-65
2021/08/13 03:26:21;;;;;;;16.55;7.78;;;;;;;16.09;84.98;102092.50;5014199;28;20033;-65
2021/08/13 03:28:48;;;;;;;9.85;6.85;;;;;;;16.05;85.20;102089.13;5016153;28;20030;-65
2021/08/13 03:31:41;;;;;;;12.55;7.35;;;;;;;16.02;85.89;102084.81;5030836;28;20029;-65
2021/08/13 03:34:08;;;;;;;11.30;6.90;;;;;;;15.98;85.68;102077.84;5033706;28;20025;-64
2021/08/13 03:36:35;;;;;;;11.57;6.45;;;;;;;15.95;85.99;102075.34;5033422;28;20494;-65
2021/08/13 03:39:00;;;;;;;12.95;6.80;;;;;;;15.97;86.45;102075.25;5032748;28;20200;-65
2021/08/13 03:41:26;;;;;;;10.75;6.72;;;;;;;15.95;86.20;102077.16;5031808;28;20112;-65
2021/08/13 03:43:51;;;;;;;11.93;6.75;;;;;;;15.93;86.39;102066.50;5033732;28;20032;-65
2021/08/13 03:46:17;;;;;;;12.18;7.38;;;;;;;15.92;86.37;102067.47;5033677;28;20160;-65
2021/08/13 03:48:42;;;;;;;12.10;6.97;;;;;;;15.93;86.11;102071.00;5033288;28;20049;-65
2021/08/13 03:51:07;;;;;;;13.32;7.90;;;;;;;15.89;86.52;102065.81;5030175;28;20033;-64
2021/08/13 03:53:33;;;;;;;13.02;7.47;;;;;;;15.89;86.39;102075.63;5033443;28;20022;-65
2021/08/13 03:55:58;;;;;;;11.40;7.20;;;;;;;15.89;86.39;102064.94;5033106;28;20026;-65
2021/08/13 03:58:23;;;;;;;13.23;7.32;;;;;;;15.88;87.01;102066.75;5033549;28;20033;-64
2021/08/13 04:00:49;;;;;;;10.82;7.15;;;;;;;15.87;86.77;102075.69;5032881;28;20021;-64
2021/08/13 04:03:14;;;;;;;13.38;8.05;;;;;;;15.87;86.92;102064.16;5030230;28;20519;-63
2021/08/13 04:05:39;;;;;;;13.40;8.02;;;;;;;15.86;86.76;102070.44;5033065;28;20030;-63
2021/08/13 04:08:05;;;;;;;15.25;8.02;;;;;;;15.86;87.14;102073.13;5032873;28;20056;-63
2021/08/13 04:10:30;;;;;;;14.32;7.47;;;;;;;15.86;87.56;102073.97;5032882;28;20034;-63
2021/08/13 04:12:55;;;;;;;12.70;7.60;;;;;;;15.87;87.27;102083.72;5029787;28;20032;-64
2021/08/13 04:15:21;;;;;;;17.05;8.52;;;;;;;15.91;87.03;102084.44;5016876;28;20096;-63
2021/08/13 04:17:48;;;;;;;12.20;8.32;;;;;;;15.93;87.14;102090.56;5012998;28;20034;-64
2021/08/13 04:20:14;;;;;;;13.32;8.88;;;;;;;15.95;87.08;102087.84;5013128;28;20026;-63
2021/08/13 04:22:39;;;;;;;13.38;7.25;;;;;;;15.94;87.04;102086.97;5014793;28;20036;-62
2021/08/13 04:25:05;;;;;;;15.38;8.32;;;;;;;15.96;87.02;102079.75;5032442;28;20018;-64
2021/08/13 04:27:30;;;;;;;13.15;7.85;;;;;;;15.97;86.90;102077.94;5032843;28;20061;-64
2021/08/13 04:29:55;;;;;;;12.93;8.02;;;;;;;15.97;87.25;102092.16;5033490;28;20053;-64
2021/08/13 04:32:21;;;;;;;14.45;8.05;;;;;;;15.99;87.03;102092.09;5032515;28;20467;-64
2021/08/13 04:34:46;;;;;;;14.43;8.05;;;;;;;15.99;86.74;102094.75;5030142;28;20040;-64
2021/08/13 04:37:11;;;;;;;16.08;8.75;;;;;;;16.00;87.06;102088.50;5032720;28;20032;-64
2021/08/13 04:39:37;;;;;;;15.85;9.23;;;;;;;16.00;87.11;102080.47;5032335;28;20064;-64
2021/08/13 04:42:02;;;;;;;13.98;8.80;;;;;;;16.00;87.28;102084.00;5032269;28;20123;-64
2021/08/13 04:44:28;;;;;;;14.73;8.75;;;;;;;16.03;87.33;102081.16;5023025;28;20041;-64
2021/08/13 04:46:53;;;;;;;15.35;8.80;;;;;;;16.03;87.34;102069.63;5013051;28;20026;-64
2021/08/13 04:49:18;;;;;;;13.80;8.90;;;;;;;16.04;87.28;102074.88;5012627;28;20040;-64
2021/08/13 04:51:44;;;;;;;19.45;10.23;;;;;;;16.10;86.81;102081.75;5012505;28;20032;-64
2021/08/13 04:54:10;;;;;;;18.45;8.85;;;;;;;16.18;86.75;102078.72;5014632;28;20037;-64
2021/08/13 04:56:36;;;;;;;15.70;9.10;;;;;;;16.22;87.29;102083.81;5012255;28;20080;-64
2021/08/13 04:59:01;;;;;;;15.57;8.82;;;;;;;16.31;86.80;102076.31;5012753;28;20029;-64
2021/08/13 05:01:27;;;;;;;15.10;9.13;;;;;;;16.37;86.99;102076.84;5030295;28;20071;-64
2021/08/13 05:03:52;;;;;;;15.07;8.52;;;;;;;16.47;86.24;102081.72;5032104;28;20033;-64
2021/08/13 05:06:18;;;;;;;17.33;9.13;;;;;;;16.57;86.37;102072.31;5028899;28;20041;-65
2021/08/13 05:08:44;;;;;;;17.85;8.32;;;;;;;16.68;85.89;102079.81;5032097;28;20045;-65
2021/08/13 05:11:09;;;;;;;16.38;8.63;;;;;;;16.77;85.85;102084.69;5011340;28;20526;-65
2021/08/13 05:13:35;;;;;;;18.08;8.43;;;;;;;16.84;85.61;102080.75;5015716;28;20034;-65
2021/08/13 05:16:00;;;;;;;18.60;8.60;;;;;;;16.93;85.05;102078.56;5028811;28;20360;-65
2021/08/13 05:18:25;;;;;;;16.65;8.57;;;;;;;16.95;84.93;102080.22;5027923;28;20040;-64
2021/08/13 05:20:51;;;;;;;16.45;9.15;;;;;;;17.03;84.85;102085.16;5031908;28;20060;-65
2021/08/13 05:23:16;;;;;;;13.48;8.02;;;;;;;17.07;84.57;102083.19;5032023;28;20022;-65
2021/08/13 05:25:41;;;;;;;16.40;8.90;;;;;;;17.11;84.52;102079.41;5030352;28;20033;-65
2021/08/13 05:28:06;;;;;;;14.48;8.73;;;;;;;17.14;84.56;102081.94;5029793;28;20044;-65
2021/08/13 05:30:32;;;;;;;15.52;8.38;;;;;;;17.19;84.47;102091.44;5031859;28;20116;-64
2021/08/13 05:32:57;;;;;;;19.40;9.55;;;;;;;17.26;84.32;102091.13;5032100;28;20057;-65
2021/08/13 05:35:23;;;;;;;14.30;8.30;;;;;;;17.30;83.95;102090.00;5031801;28;20025;-65
2021/08/13 05:37:48;;;;;;;16.45;8.85;;;;;;;17.33;83.34;102088.03;5028400;28;20033;-64
2021/08/13 05:40:13;;;;;;;16.05;8.50;;;;;;;17.34;83.80;102080.84;5028930;28;20498;-64
2021/08/13 05:42:39;;;;;;;17.83;8.45;;;;;;;17.34;83.64;102084.41;5021177;28;20030;-63
2021/08/13 05:45:05;;;;;;;18.13;8.82;;;;;;;17.36;83.25;102084.31;5021429;28;20079;-64
2021/08/13 05:47:33;;;;;;;15.43;8.57;;;;;;;17.40;83.49;102093.91;5006151;28;20042;-64
2021/08/13 05:49:58;;;;;;;17.17;9.07;;;;;;;17.42;83.69;102094.72;5029815;28;20024;-64
2021/08/13 05:52:23;;;;;;;16.02;8.55;;;;;;;17.44;83.00;102098.19;5028361;28;20033;-64
2021/08/13 05:54:49;;;;;;;16.30;8.80;;;;;;;17.47;83.14;102106.03;5030770;28;20048;-63
2021/08/13 05:57:14;;;;;;;17.17;9.20;;;;;;;17.47;83.20;102108.72;5028634;28;20033;-63
2021/08/13 05:59:39;;;;;;;13.68;7.97;;;;;;;17.50;83.06;102103.19;5030204;28;20034;-64
2021/08/13 06:02:04;;;;;;;15.88;7.93;;;;;;;17.58;82.63;102117.97;5031558;28;20029;-63
2021/08/13 06:04:30;;;;;;;15.05;7.68;;;;;;;17.61;82.70;102115.13;5032385;28;20446;-64
2021/08/13 06:06:55;;;;;;;14.63;7.30;;;;;;;17.64;82.51;102112.28;5022760;28;20073;-65
2021/08/13 06:09:20;;;;;;;19.30;7.72;;;;;;;17.69;82.11;102110.22;5014914;28;20065;-63
2021/08/13 06:11:46;;;;;;;15.43;7.70;;;;;;;17.75;82.12;102117.06;5029485;28;20048;-63
2021/08/13 06:14:11;;;;;;;11.77;7.20;;;;;;;17.78;82.30;102117.75;5033441;28;20041;-64
2021/08/13 06:16:36;;;;;;;14.15;7.20;;;;;;;17.84;81.80;102125.47;5026213;28;20021;-64
2021/08/13 06:19:02;;;;;;;13.23;7.05;;;;;;;17.84;81.99;102124.59;5028991;28;20060;-64
2021/08/13 06:21:29;;;;;;;10.98;7.18;;;;;;;17.90;81.85;102128.75;5032100;28;20029;-64
2021/08/13 06:23:55;;;;;;;14.88;7.38;;;;;;;17.92;81.84;102121.50;5033715;28;20021;-64
2021/08/13 06:26:20;;;;;;;16.70;7.70;;;;;;;18.00;80.81;102124.63;5031249;28;20420;-63
2021/08/13 06:28:45;;;;;;;16.73;7.22;;;;;;;18.08;81.10;102129.56;5033236;28;20033;-65
2021/08/13 06:31:11;;;;;;;12.80;7.13;;;;;;;18.16;80.81;102133.56;5034050;28;20032;-64
2021/08/13 06:33:36;;;;;;;18.42;7.22;;;;;;;18.24;80.42;102137.63;5033499;28;20032;-63
2021/08/13 06:36:01;;;;;;;14.88;7.50;;;;;;;18.25;80.37;102131.28;5032065;28;20029;-64
2021/08/13 06:38:27;;;;;;;15.45;7.32;;;;;;;18.31;80.25;102133.63;5032198;28;20105;-63
2021/08/13 06:40:52;;;;;;;11.82;6.75;;;;;;;18.54;79.38;102139.50;5023919;28;20092;-63
2021/08/13 06:43:17;;;;;;;12.02;5.70;;;;;;;18.62;77.05;102147.94;5012580;28;20026;-62
2021/08/13 06:45:43;;;;;;;11.98;5.50;;;;;;;18.63;75.95;102144.31;5012791;28;20080;-64
2021/08/13 06:48:08;;;;;;;13.98;5.15;;;;;;;18.58;76.55;102146.41;5029861;28;20443;-64
2021/08/13 06:50:33;;;;;;;11.43;5.95;;;;;;;18.48;76.83;102157.66;5031789;28;20033;-65
2021/08/13 06:52:59;;;;;;;10.95;4.57;;;;;;;18.53;75.20;102153.84;5031692;28;20029;-63
2021/08/13 06:55:24;;;;;;;9.57;4.40;;;;;;;18.45;74.99;102151.59;5032011;28;20105;-63
2021/08/13 06:57:49;;;;;;;9.00;4.70;;;;;;;18.47;74.53;102153.25;5031315;28;20069;-61
2021/08/13 07:00:15;;;;;;;10.68;4.78;;;;;;;18.53;74.67;102156.53;5031883;28;20026;-64
2021/08/13 07:02:46;;;;;;;9.00;4.20;;;;;;;18.61;73.63;102159.66;5018151;28;20534;-64
2021/08/13 07:05:13;;;;;;;7.50;4.32;;;;;;;18.63;73.19;102163.97;5012083;28;20455;-63
2021/08/13 07:07:38;;;;;;;12.32;4.50;;;;;;;18.73;72.78;102161.59;5012137;28;20191;-63
2021/08/13 07:10:05;;;;;;;9.52;4.00;;;;;;;18.84;71.14;102156.47;5018489;28;20433;-64
2021/08/13 07:12:31;;;;;;;9.13;3.85;;;;;;;18.80;71.13;102154.09;5029696;28;20025;-64
2021/08/13 07:14:57;;;;;;;10.48;3.80;;;;;;;18.76;69.75;102149.81;5030057;28;20033;-63
2021/08/13 07:17:22;;;;;;;9.40;4.10;;;;;;;18.79;69.21;102144.28;5031583;28;20136;-64
2021/08/13 07:19:48;;;;;;;8.38;3.55;;;;;;;18.73;70.61;102153.56;5031981;28;20386;-63
2021/08/13 07:22:13;;;;;;;8.65;4.25;;;;;;;18.77;70.35;102173.03;5031016;28;20021;-63
2021/08/13 07:24:38;;;;;;;8.27;3.78;;;;;;;18.86;70.24;102160.88;5029579;28;20022;-64
2021/08/13 07:27:04;;;;;;;8.73;4.25;;;;;;;19.15;68.95;102151.97;5023113;28;20498;-63
2021/08/13 07:29:29;;;;;;;6.32;3.55;;;;;;;19.39;67.89;102172.09;5014369;28;20079;-63
2021/08/13 07:31:55;;;;;;;8.60;4.00;;;;;;;19.39;67.55;102190.91;5031692;28;20078;-64
2021/08/13 07:34:21;;;;;;;10.10;3.88;;;;;;;19.26;67.84;102196.13;5029956;28;20105;-63
2021/08/13 07:36:46;;;;;;;7.30;3.70;;;;;;;19.12;69.13;102197.81;5030771;28;20247;-63
2021/08/13 07:39:12;;;;;;;7.13;3.60;;;;;;;19.23;67.82;102210.59;5030839;28;20029;-64
2021/08/13 07:41:37;;;;;;;6.78;3.35;;;;;;;19.31;67.19;102205.66;5029610;28;20186;-64
2021/08/13 07:44:03;;;;;;;6.68;3.53;;;;;;;19.36;66.15;102186.56;5030214;28;20370;-64
2021/08/13 07:46:28;;;;;;;8.98;3.50;;;;;;;19.38;66.43;102197.22;5015372;28;20060;-65
2021/08/13 07:48:54;;;;;;;7.30;3.22;;;;;;;19.34;66.78;102183.09;5030953;28;20025;-63
2021/08/13 07:51:20;;;;;;;8.25;3.60;;;;;;;19.59;66.57;102185.16;5030560;28;20022;-63
2021/08/13 07:53:45;;;;;;;7.35;3.10;;;;;;;19.67;64.89;102176.63;5030791;28;20036;-63
2021/08/13 07:56:10;;;;;;;13.13;4.35;;;;;;;19.66;66.14;102180.28;5030073;28;20340;-63
2021/08/13 07:58:36;;;;;;;8.82;3.70;;;;;;;19.79;65.58;102180.38;5030844;28;20375;-64
2021/08/13 08:01:02;;;;;;;7.63;3.47;;;;;;;19.78;66.60;102201.00;5031334;28;20132;-63
2021/08/13 08:03:27;;;;;;;10.40;3.60;;;;;;;19.88;66.01;102209.38;5031511;28;20037;-64
2021/08/13 08:05:52;;;;;;;7.38;3.40;;;;;;;20.23;65.81;102194.66;5023026;28;20109;-64
2021/08/13 08:08:18;;;;;;;10.90;3.38;;;;;;;20.14;65.17;102174.59;5010908;28;20050;-64
2021/08/13 08:10:46;;;;;;;7.45;3.78;;;;;;;20.15;64.66;102192.47;5011852;28;20439;-64
2021/08/13 08:13:16;;;;;;;6.43;3.35;;;;;;;19.99;63.56;102192.59;5011172;28;20029;-66
2021/08/13 08:15:41;;;;;;;7.55;3.42;;;;;;;20.04;65.05;102211.09;5021145;28;20364;-64
2021/08/13 08:18:07;;;;;;;9.32;3.88;;;;;;;20.17;64.13;102201.31;5031990;28;20036;-63
2021/08/13 08:20:32;;;;;;;9.68;3.67;;;;;;;20.29;64.16;102205.03;5031497;28;20021;-65
2021/08/13 08:22:58;;;;;;;8.38;3.70;;;;;;;20.37;64.13;102208.09;5031014;28;20482;-65
2021/08/13 08:25:23;;;;;;;7.90;3.83;;;;;;;20.16;64.59;102207.63;5030821;28;20037;-64
2021/08/13 08:27:48;;;;;;;7.40;3.78;;;;;;;20.32;64.50;102215.59;5029204;28;20052;-64
2021/08/13 08:30:14;;;;;;;7.60;3.83;;;;;;;20.45;63.74;102218.38;5021626;28;20076;-65
2021/08/13 08:32:40;;;;;;;9.85;4.18;;;;;;;20.55;64.01;102218.59;5011397;28;20486;-66
2021/08/13 08:35:05;;;;;;;8.13;4.00;;;;;;;20.55;63.12;102229.38;5011110;28;20119;-64
2021/08/13 08:37:31;;;;;;;8.15;3.70;;;;;;;20.39;63.38;102208.00;5011698;28;20030;-63
2021/08/13 08:39:56;;;;;;;10.38;4.38;;;;;;;20.42;63.79;102218.53;5011286;28;20065;-63
2021/08/13 08:42:21;;;;;;;9.82;3.90;;;;;;;20.62;63.50;102219.94;5010743;28;20033;-63
2021/08/13 08:44:48;;;;;;;12.52;4.03;;;;;;;20.98;61.90;102225.72;5015665;28;20114;-64
2021/08/13 08:47:16;;;;;;;9.65;4.13;;;;;;;20.87;61.98;102234.50;5011093;28;20132;-64
2021/08/13 08:49:43;;;;;;;8.55;3.75;;;;;;;21.25;61.63;102249.91;5014308;28;20056;-64
2021/08/13 08:52:09;;;;;;;7.88;3.47;;;;;;;21.51;59.68;102236.47;5029952;28;20029;-63
2021/08/13 08:54:36;;;;;;;7.57;3.10;;;;;;;22.10;58.03;102238.66;5030662;28;20025;-64
2021/08/13 08:57:04;;;;;;;8.40;3.30;;;;;;;22.09;56.42;102245.03;5030922;28;20061;-64
2021/08/13 08:59:30;;;;;;;10.27;3.80;;;;;;;21.53;58.75;102262.34;5028434;28;20475;-63
2021/08/13 09:01:56;;;;;;;7.82;3.67;;;;;;;21.67;58.22;102265.97;5030712;28;20090;-64
2021/08/13 09:04:21;;;;;;;8.75;3.30;;;;;;;21.86;58.33;102261.00;5031326;28;20072;-63
2021/08/13 09:06:47;;;;;;;9.38;3.47;;;;;;;22.31;57.79;102260.53;5030601;28;20501;-63
2021/08/13 09:09:13;;;;;;;10.75;3.38;;;;;;;22.39;55.20;102258.19;5029599;28;20384;-62
2021/08/13 09:11:39;;;;;;;8.57;3.35;;;;;;;22.64;53.41;102260.91;5031163;28;20036;-64
2021/08/13 09:14:10;;;;;;;9.82;3.28;;;;;;;22.94;52.47;102259.59;5030366;28;20026;-65
2021/08/13 09:16:36;;;;;;;10.38;3.45;;;;;;;22.53;53.18;102243.66;5030440;28;20029;-64
2021/08/13 09:19:07;;;;;;;9.25;3.80;;;;;;;22.24;53.39;102259.25;5030273;28;20387;-64
2021/08/13 09:21:34;;;;;;;;;;;;;;;21.97;54.65;102235.09;5028721;28;20025;-64
2021/08/13 09:24:07;;;;;;;9.43;3.05;;;;;;;21.93;54.46;102262.31;5030335;28;19999;-64
2021/08/13 09:26:42;;;;;;;10.75;3.45;;;;;;;22.58;53.09;102265.78;5029979;28;20029;-63
2021/08/13 09:29:17;;;;;;;10.52;3.10;;;;;;;22.70;50.59;102258.63;5029974;28;20021;-64
2021/08/13 09:31:49;;;;;;;6.93;3.13;;;;;;;22.88;50.19;102266.34;5016611;28;20105;-64
2021/08/13 09:34:16;;;;;;;10.32;3.05;;;;;;;23.21;49.12;102265.66;5011097;28;20144;-64
2021/08/13 09:36:53;;;;;;;8.60;2.83;;;;;;;23.42;48.22;102274.94;5008761;28;20026;-64
2021/08/13 09:39:28;;;;;;;9.10;2.85;;;;;;;23.71;47.47;102287.03;5013363;28;20030;-65
2021/08/13 09:41:56;;;;;;;8.43;3.03;;;;;;;23.91;46.14;102289.19;5013632;28;20034;-64
2021/08/13 09:44:30;;;;;;;7.90;3.03;;;;;;;24.05;46.85;102289.84;5030475;28;20037;-63
2021/08/13 09:46:59;;;;;;;9.50;2.97;;;;;;;24.21;46.78;102300.28;5033551;28;20029;-64
2021/08/13 09:49:25;;;;;;;9.27;3.03;;;;;;;24.33;45.62;102284.03;5013066;28;20025;-64
2021/08/13 09:51:50;;;;;;;10.55;3.05;;;;;;;24.99;45.50;102303.03;5024221;28;20022;-62
2021/08/13 09:54:16;;;;;;;8.77;3.42;;;;;;;25.80;42.56;102294.38;5032495;28;20033;-64
2021/08/13 09:56:41;;;;;;;10.80;3.33;;;;;;;26.16;41.33;102300.34;5032804;28;20076;-64
2021/08/13 09:59:11;;;;;;;6.60;2.70;;;;;;;26.17;41.90;102296.59;5014782;28;20034;-63
2021/08/13 10:01:40;;;;;;;7.25;3.05;;;;;;;25.62;42.86;102301.44;5033366;28;20030;-64
2021/08/13 10:04:06;;;;;;;9.57;2.97;;;;;;;25.89;43.77;102300.88;5032748;28;20023;-63
2021/08/13 10:06:32;;;;;;;9.50;3.58;;;;;;;25.94;41.50;102295.06;5027968;28;20056;-62
2021/08/13 10:08:57;;;;;;;7.80;2.83;;;;;;;26.23;40.92;102302.50;5030148;28;20057;-64
2021/08/13 10:11:23;;;;;;;12.70;3.10;;;;;;;25.80;41.82;102307.09;5028044;28;20041;-63
2021/08/13 10:13:48;;;;;;;6.72;2.85;;;;;;;25.53;42.19;102294.94;5031845;28;20064;-62
2021/08/13 10:16:24;;;;;;;9.50;2.80;;;;;;;25.25;42.54;102310.81;5020832;28;20133;-64
2021/08/13 10:18:50;;;;;;;14.57;3.33;;;;;;;24.45;45.08;102306.53;5012691;28;20109;-63
2021/08/13 10:21:16;;;;;;;10.75;2.90;;;;;;;25.22;44.06;102302.94;5031530;28;20073;-62
2021/08/13 10:23:43;;;;;;;9.40;2.95;;;;;;;25.80;41.66;102302.53;5031824;28;20473;-64
2021/08/13 10:26:10;;;;;;;9.02;3.15;;;;;;;25.90;40.53;102290.91;5016722;28;20026;-62
2021/08/13 10:28:35;;;;;;;12.40;3.00;;;;;;;25.63;40.76;102295.03;5012192;28;20109;-63
2021/08/13 10:31:02;;;;;;;8.73;3.15;;;;;;;26.18;40.51;102305.63;5026225;28;20029;-64
2021/08/13 10:33:28;;;;;;;11.45;3.40;;;;;;;25.80;41.68;102288.13;5030575;28;20451;-64
2021/08/13 10:35:57;;;;;;;8.20;2.70;;;;;;;25.64;41.85;102304.84;5031434;28;20066;-63
2021/08/13 10:38:25;;;;;;;9.18;3.15;;;;;;;25.29;43.96;102311.41;5032321;28;20120;-63
2021/08/13 10:40:51;;;;;;;11.05;3.05;;;;;;;25.40;43.12;102307.81;5032066;28;20043;-63
2021/08/13 10:43:20;;;;;;;10.60;3.10;;;;;;;25.38;42.63;102320.66;5031583;28;20386;-63
2021/08/13 10:45:51;;;;;;;11.25;3.03;;;;;;;25.00;42.87;102307.47;5031999;28;20188;-64
2021/08/13 10:48:22;;;;;;;11.80;3.20;;;;;;;24.84;42.72;102313.28;5027554;28;20045;-63
2021/08/13 10:50:48;;;;;;;;;;;;;;;24.33;44.39;102313.81;5024486;28;20030;-63
2021/08/13 10:53:30;;;;;;;12.25;3.00;;;;;;;23.92;45.38;102308.00;5031686;28;20286;-64
2021/08/13 10:55:57;;;;;;;10.35;2.95;;;;;;;23.95;45.42;102305.09;5032097;28;20052;-63
2021/08/13 10:58:40;;;;;;;11.90;2.80;;;;;;;23.81;46.73;102307.94;5031477;28;20113;-63
2021/08/13 11:01:12;;;;;;;10.85;2.83;;;;;;;23.56;46.41;102309.88;5031362;28;20038;-64
2021/08/13 11:03:42;;;;;;;10.95;3.00;;;;;;;23.46;45.69;102308.84;5031661;28;20033;-63
2021/08/13 11:06:07;;;;;;;11.93;2.92;;;;;;;23.65;47.33;102316.41;5031585;28;20116;-62
2021/08/13 11:08:54;;;;;;;12.45;2.85;;;;;;;23.38;46.71;102325.66;5031483;28;20129;-63
2021/08/13 11:11:21;;;;;;;12.43;3.10;;;;;;;23.48;46.21;102323.97;5031781;28;20558;-62
2021/08/13 11:13:47;;;;;;;11.57;3.03;;;;;;;23.18;47.33;102319.91;5031561;28;20077;-64
2021/08/13 11:16:24;;;;;;;14.07;3.55;;;;;;;22.97;48.54;102329.59;5031573;28;20025;-64
2021/08/13 11:18:56;;;;;;;11.95;3.55;;;;;;;22.95;47.85;102326.16;5031757;28;20030;-62